Bavaria

Go HERE for most recent data if this page is not up to date.

Jump to table bottom
Date Time Temp F RH % AVG Wind Max Wind Wind Dir 24 Snow Depth
03/02 02:00 16.1 88 0 3 NE - 46 12.7 51.3
03/02 01:00 16.0 85 0 4 NE - 33 12.7 51.4
03/02 00:00 15.5 83 1 5 NE - 43 12.8 51.3
03/01 23:00 16.8 75 2 6 SW - 232 12.8 51.3
03/01 22:00 17.3 74 1 6 NW - 301 12.9 51.4
03/01 21:00 17.1 73 1 4 W - 266 13.0 51.5
03/01 20:00 17.1 72 1 6 W - 267 13.1 51.6
03/01 19:00 16.4 76 1 3 S - 174 13.1 51.6
03/01 18:00 17.8 78 2 6 S - 177 13.1 51.5
03/01 17:00 19.7 73 2 12 W - 256 13.2 51.6
03/01 16:00 20.3 70 3 8 SW - 244 13.3 51.2
03/01 15:00 20.7 69 3 9 W - 269 13.3 152.5
03/01 14:00 22.2 62 4 15 S - 166 13.4 152.5
03/01 13:00 18.1 75 4 16 SW - 215 13.5 152.5
03/01 12:00 17.3 75 4 12 W - 261 13.3 152.5
03/01 11:00 16.3 80 4 10 S - 182 13.1 152.5
03/01 10:00 15.4 80 4 16 E - 97 13.7 152.5
03/01 09:00 14.7 83 8 20 W - 284 13.5 152.5
03/01 08:00 13.7 86 10 20 W - 260 13.3 49.6
03/01 07:00 13.8 86 11 21 NW - 305 12.8 152.5
03/01 06:00 15.0 87 14 19 W - 291 10.3 152.5
03/01 05:00 17.2 86 9 14 NW - 321 10.4 152.5
03/01 04:00 19.1 86 6 15 W - 279 7.5 152.5
03/01 03:00 20.6 88 3 9 SW - 236 5.7 43.8
03/01 02:00 21.7 87 5 13 SW - 206 5.7 43.6
03/01 01:00 22.0 87 4 14 S - 171 5.7 43.5
03/01 00:00 23.1 84 5 12 S - 179 5.7 43.5
.